createdAt,value
2018-07-17T00:00:02.890Z,16.70
2018-07-17T00:02:31.359Z,16.60
2018-07-17T00:04:59.856Z,16.70
2018-07-17T00:07:28.368Z,16.60
2018-07-17T00:09:57.117Z,16.50
2018-07-17T00:12:25.710Z,16.60
2018-07-17T00:14:54.318Z,16.50
2018-07-17T00:17:22.848Z,16.50
2018-07-17T00:19:51.362Z,16.50
2018-07-17T00:22:19.890Z,16.50
2018-07-17T00:24:48.490Z,16.40
2018-07-17T00:27:17.006Z,16.50
2018-07-17T00:29:45.638Z,16.50
2018-07-17T00:32:14.118Z,16.40
2018-07-17T00:34:42.624Z,16.40
2018-07-17T00:37:11.174Z,16.30
2018-07-17T00:39:39.732Z,16.30
2018-07-17T00:42:08.641Z,16.30
2018-07-17T00:44:37.170Z,16.40
2018-07-17T00:47:05.677Z,16.40
2018-07-17T00:49:34.275Z,16.40
2018-07-17T00:52:02.808Z,16.40
2018-07-17T00:54:31.338Z,16.50
2018-07-17T00:56:59.866Z,16.40
2018-07-17T00:59:28.388Z,16.40
2018-07-17T01:02:02.255Z,16.50
2018-07-17T01:04:36.086Z,16.40
2018-07-17T01:07:09.878Z,16.40
2018-07-17T01:09:43.806Z,16.50
2018-07-17T01:12:12.618Z,16.40
2018-07-17T01:14:59.216Z,16.40
2018-07-17T01:17:28.456Z,16.40
2018-07-17T01:19:56.891Z,16.40
2018-07-17T01:22:25.501Z,16.30
2018-07-17T01:24:54.086Z,16.20
2018-07-17T01:27:22.660Z,16.10
2018-07-17T01:29:51.161Z,16.00
2018-07-17T01:32:19.605Z,16.10
2018-07-17T01:34:48.209Z,16.10
2018-07-17T01:37:16.734Z,16.10
2018-07-17T01:39:45.434Z,16.30
2018-07-17T01:42:13.920Z,16.20
2018-07-17T01:44:42.378Z,16.20
2018-07-17T01:47:10.892Z,16.10
2018-07-17T01:49:39.349Z,16.20
2018-07-17T01:52:07.780Z,16.20
2018-07-17T01:54:36.304Z,16.20
2018-07-17T01:57:04.797Z,16.20
2018-07-17T01:59:33.259Z,16.20
2018-07-17T02:02:01.760Z,16.20
2018-07-17T02:04:30.241Z,16.20
2018-07-17T02:06:58.693Z,16.20
2018-07-17T02:09:27.166Z,16.20
2018-07-17T02:11:55.675Z,16.20
2018-07-17T02:14:24.185Z,16.30
2018-07-17T02:16:52.636Z,16.30
2018-07-17T02:19:21.086Z,16.30
2018-07-17T02:21:49.554Z,16.30
2018-07-17T02:24:18.034Z,16.40
2018-07-17T02:26:46.497Z,16.30
2018-07-17T02:29:14.997Z,16.30
2018-07-17T02:31:43.487Z,16.20
2018-07-17T02:34:12.030Z,16.30
2018-07-17T02:36:40.491Z,16.30
2018-07-17T02:39:09.569Z,16.30
2018-07-17T02:41:38.080Z,16.30
2018-07-17T02:44:06.665Z,16.30
2018-07-17T02:46:35.098Z,16.30
2018-07-17T02:49:03.657Z,16.30
2018-07-17T02:51:32.259Z,16.30
2018-07-17T02:54:00.693Z,16.30
2018-07-17T02:56:29.249Z,16.30
2018-07-17T02:58:57.845Z,16.30
2018-07-17T03:01:26.335Z,16.30
2018-07-17T03:03:54.775Z,16.30
2018-07-17T03:06:23.278Z,16.30
2018-07-17T03:08:51.725Z,16.20
2018-07-17T03:11:20.219Z,16.20
2018-07-17T03:13:48.755Z,16.20
2018-07-17T03:16:17.568Z,16.20
2018-07-17T03:18:46.059Z,16.20
2018-07-17T03:21:14.634Z,16.20
2018-07-17T03:23:43.230Z,16.20
2018-07-17T03:26:12.004Z,16.20
2018-07-17T03:28:41.007Z,16.20
2018-07-17T03:31:09.694Z,16.20
2018-07-17T03:33:38.525Z,16.20
2018-07-17T03:36:07.309Z,16.20
2018-07-17T03:41:05.697Z,16.20
2018-07-17T03:43:34.899Z,16.20
2018-07-17T03:47:40.631Z,16.20
2018-07-17T03:50:09.449Z,16.20
2018-07-17T03:52:38.327Z,16.20
2018-07-17T03:55:07.367Z,16.20
2018-07-17T03:57:36.418Z,16.20
2018-07-17T04:00:06.034Z,16.20
2018-07-17T04:02:34.922Z,16.20
2018-07-17T04:05:03.817Z,16.20
2018-07-17T04:08:04.173Z,16.20
2018-07-17T04:10:33.205Z,16.20
2018-07-17T04:13:01.990Z,16.20
2018-07-17T04:15:30.786Z,16.30
2018-07-17T04:17:59.629Z,16.30
2018-07-17T04:20:28.739Z,16.30
2018-07-17T04:22:57.850Z,16.40
2018-07-17T04:25:26.738Z,16.40
2018-07-17T04:27:55.611Z,16.40
2018-07-17T04:30:24.671Z,16.40
2018-07-17T04:32:53.693Z,16.50
2018-07-17T04:35:22.587Z,16.40
2018-07-17T04:37:51.515Z,16.50
2018-07-17T04:40:20.671Z,16.50
2018-07-17T04:42:49.604Z,16.50
2018-07-17T04:45:18.210Z,16.50
2018-07-17T04:47:47.078Z,16.50
2018-07-17T04:50:16.956Z,16.50
2018-07-17T04:52:45.914Z,16.50
2018-07-17T04:55:15.346Z,16.60
2018-07-17T04:57:44.960Z,16.60
2018-07-17T05:00:14.056Z,16.60
2018-07-17T05:02:43.280Z,16.60
2018-07-17T05:05:12.220Z,16.70
2018-07-17T05:07:40.997Z,16.70
2018-07-17T05:10:10.129Z,16.70
2018-07-17T05:12:39.194Z,16.70
2018-07-17T05:15:08.319Z,16.80
2018-07-17T05:17:37.252Z,16.80
2018-07-17T05:20:06.640Z,16.80
2018-07-17T05:22:35.514Z,16.80
2018-07-17T05:25:04.787Z,16.80
2018-07-17T05:27:33.885Z,16.90
2018-07-17T05:30:02.821Z,16.90
2018-07-17T05:32:31.714Z,17.00
2018-07-17T05:35:00.545Z,17.00
2018-07-17T05:37:29.536Z,17.10
2018-07-17T05:39:58.435Z,17.20
2018-07-17T05:42:27.385Z,17.20
2018-07-17T05:44:56.341Z,17.30
2018-07-17T05:47:25.205Z,17.40
2018-07-17T05:49:54.224Z,17.40
2018-07-17T05:52:23.245Z,17.60
2018-07-17T05:54:52.308Z,17.60
2018-07-17T05:57:21.138Z,17.60
2018-07-17T05:59:50.194Z,17.70
2018-07-17T06:02:19.287Z,17.80
2018-07-17T06:04:48.338Z,17.90
2018-07-17T06:07:18.503Z,18.00
2018-07-17T06:09:47.429Z,18.10
2018-07-17T06:12:16.359Z,18.20
2018-07-17T06:14:45.689Z,18.30
2018-07-17T06:17:14.895Z,18.40
2018-07-17T06:20:17.445Z,18.50
2018-07-17T06:22:46.081Z,18.50
2018-07-17T06:25:14.880Z,18.50
2018-07-17T06:27:54.058Z,18.50
2018-07-17T06:30:22.961Z,18.50
2018-07-17T06:33:03.480Z,18.70
2018-07-17T06:35:44.682Z,18.90
2018-07-17T06:38:13.901Z,19.00
2018-07-17T06:40:43.777Z,19.10
2018-07-17T06:43:12.986Z,19.20
2018-07-17T06:45:41.905Z,19.30
2018-07-17T06:48:11.136Z,19.50
2018-07-17T06:50:40.188Z,19.50
2018-07-17T06:53:09.973Z,19.50
2018-07-17T06:55:39.005Z,19.60
2018-07-17T06:58:08.150Z,19.60
2018-07-17T07:00:45.146Z,19.70
2018-07-17T07:04:01.793Z,19.80
2018-07-17T07:06:30.991Z,20.00
2018-07-17T07:09:00.179Z,20.10
2018-07-17T07:11:29.098Z,20.20
2018-07-17T07:13:58.231Z,20.30
2018-07-17T07:16:27.472Z,20.40
2018-07-17T07:18:56.312Z,20.50
2018-07-17T07:21:25.395Z,20.50
2018-07-17T07:23:54.423Z,20.40
2018-07-17T07:26:23.184Z,20.70
2018-07-17T07:28:52.077Z,20.80
2018-07-17T07:31:21.422Z,20.90
2018-07-17T07:33:50.942Z,21.20
2018-07-17T07:36:20.119Z,21.40
2018-07-17T07:38:49.129Z,21.50
2018-07-17T07:41:18.316Z,21.70
2018-07-17T07:43:47.524Z,21.70
2018-07-17T07:46:16.462Z,21.80
2018-07-17T07:48:45.488Z,22.00
2018-07-17T07:51:14.604Z,22.10
2018-07-17T07:53:43.640Z,22.00
2018-07-17T07:56:12.672Z,22.50
2018-07-17T07:58:41.583Z,23.00
2018-07-17T08:01:14.698Z,23.40
2018-07-17T08:03:43.781Z,24.30
2018-07-17T08:06:12.752Z,25.20
2018-07-17T08:08:41.619Z,25.40
2018-07-17T08:11:10.186Z,25.50
2018-07-17T08:13:38.723Z,26.30
2018-07-17T08:16:07.480Z,26.70
2018-07-17T08:18:36.191Z,26.90
2018-07-17T08:21:04.877Z,26.80
2018-07-17T08:23:33.853Z,26.50
2018-07-17T08:28:35.815Z,25.60
2018-07-17T08:31:04.674Z,26.10
2018-07-17T08:33:33.711Z,26.10
2018-07-17T08:36:02.417Z,26.20
2018-07-17T08:38:31.113Z,26.90
2018-07-17T08:41:01.020Z,27.30
2018-07-17T08:43:29.935Z,27.50
2018-07-17T08:45:58.820Z,26.80
2018-07-17T08:48:27.894Z,27.50
2018-07-17T08:51:00.316Z,27.80
2018-07-17T08:53:34.777Z,27.30
2018-07-17T08:56:03.506Z,26.50
2018-07-17T08:58:32.635Z,26.50
2018-07-17T09:01:03.918Z,26.20
2018-07-17T09:03:34.497Z,26.10
2018-07-17T09:06:04.286Z,25.90
2018-07-17T09:08:33.217Z,25.70
2018-07-17T09:11:15.234Z,25.20
2018-07-17T09:16:16.707Z,25.80
2018-07-17T09:18:45.328Z,26.20
2018-07-17T09:21:36.985Z,27.50
2018-07-17T09:24:06.166Z,28.20
2018-07-17T09:26:35.054Z,27.70
2018-07-17T09:29:07.670Z,28.00
2018-07-17T09:31:36.410Z,27.40
2018-07-17T09:34:05.093Z,28.50
2018-07-17T09:36:40.057Z,28.90
2018-07-17T09:39:09.430Z,29.00
2018-07-17T09:41:38.069Z,28.40
2018-07-17T09:44:06.791Z,28.40
2018-07-17T09:46:35.305Z,28.30
2018-07-17T09:49:04.142Z,27.90
2018-07-17T09:51:33.240Z,27.20
2018-07-17T09:54:05.546Z,27.10
2018-07-17T09:56:34.606Z,26.90
2018-07-17T09:59:03.443Z,26.80
2018-07-17T10:01:38.356Z,26.90
2018-07-17T10:04:07.112Z,26.80
2018-07-17T10:06:36.224Z,26.70
2018-07-17T10:09:06.474Z,26.50
2018-07-17T10:11:35.405Z,27.00
2018-07-17T10:14:04.722Z,27.00
2018-07-17T10:16:33.568Z,26.90
2018-07-17T10:19:02.609Z,27.00
2018-07-17T10:21:32.003Z,27.10
2018-07-17T10:24:04.602Z,27.50
2018-07-17T10:26:34.160Z,27.20
2018-07-17T10:29:03.360Z,26.90
2018-07-17T10:31:32.628Z,27.20
2018-07-17T10:34:01.992Z,27.50
2018-07-17T10:36:31.352Z,28.10
2018-07-17T10:39:01.768Z,28.70
2018-07-17T10:55:43.713Z,29.20
2018-07-17T10:58:12.548Z,28.80
2018-07-17T11:00:42.827Z,27.50
2018-07-17T11:03:11.544Z,27.20
2018-07-17T11:05:45.011Z,26.30
2018-07-17T11:08:13.867Z,26.00
2018-07-17T11:10:47.295Z,26.00
2018-07-17T11:13:18.044Z,25.60
2018-07-17T11:15:47.060Z,25.20
2018-07-17T11:22:09.373Z,25.60
2018-07-17T11:24:48.192Z,26.30
2018-07-17T11:27:32.088Z,26.60
2018-07-17T11:30:08.565Z,27.20
2018-07-17T11:32:41.394Z,27.80
2018-07-17T11:35:09.968Z,27.90
2018-07-17T11:37:44.769Z,28.10
2018-07-17T11:40:15.025Z,28.00
2018-07-17T11:42:48.600Z,28.60
2018-07-17T11:45:17.902Z,28.30
2018-07-17T11:47:47.187Z,27.50
2018-07-17T11:50:18.588Z,26.20
2018-07-17T11:52:48.526Z,26.00
2018-07-17T11:56:07.603Z,26.00
2018-07-17T11:58:37.519Z,25.80
2018-07-17T12:01:06.580Z,24.60
2018-07-17T12:03:45.581Z,24.30
2018-07-17T12:06:14.159Z,24.20
2018-07-17T12:13:40.191Z,24.50
2018-07-17T12:16:08.808Z,24.60
2018-07-17T12:18:37.337Z,23.80
2018-07-17T12:21:11.162Z,24.00
2018-07-17T12:23:39.814Z,23.70
2018-07-17T12:26:08.354Z,23.50
2018-07-17T12:28:37.356Z,23.30
2018-07-17T12:31:06.505Z,23.30
2018-07-17T12:33:36.793Z,23.30
2018-07-17T12:36:05.750Z,23.00
2018-07-17T12:38:35.217Z,23.20
2018-07-17T12:41:03.660Z,23.80
2018-07-17T12:43:32.667Z,24.00
2018-07-17T12:46:04.120Z,24.00
2018-07-17T12:48:39.257Z,23.40
2018-07-17T12:51:08.659Z,23.40
2018-07-17T12:58:28.539Z,23.40
2018-07-17T13:00:57.915Z,22.50
2018-07-17T13:08:22.030Z,22.00
2018-07-17T13:10:58.966Z,21.90
2018-07-17T13:13:27.424Z,22.90
2018-07-17T13:15:56.214Z,23.40
2018-07-17T13:18:24.782Z,23.50
2018-07-17T13:20:53.232Z,23.00
2018-07-17T13:23:22.873Z,22.80
2018-07-17T13:25:51.611Z,22.40
2018-07-17T13:28:21.752Z,22.10
2018-07-17T13:31:02.373Z,22.00
2018-07-17T13:33:31.479Z,21.80
2018-07-17T13:36:00.196Z,21.80
2018-07-17T13:38:28.832Z,21.80
2018-07-17T13:40:57.496Z,21.50
2018-07-17T13:43:26.183Z,21.20
2018-07-17T13:48:23.121Z,21.00
2018-07-17T13:50:51.862Z,20.50
2018-07-17T13:53:20.429Z,20.40
2018-07-17T13:55:49.044Z,20.20
2018-07-17T13:58:18.026Z,20.20
2018-07-17T14:00:47.103Z,19.70
2018-07-17T14:03:16.077Z,19.50
2018-07-17T14:05:45.261Z,19.40
2018-07-17T14:08:14.076Z,19.20
2018-07-17T14:13:22.530Z,18.70
2018-07-17T14:15:52.875Z,18.50
2018-07-17T14:18:21.322Z,18.20
2018-07-17T14:20:49.946Z,18.00
2018-07-17T14:23:19.250Z,17.80
2018-07-17T14:25:47.719Z,17.50
2018-07-17T14:28:16.337Z,17.40
2018-07-17T14:33:21.027Z,17.10
2018-07-17T14:35:50.050Z,17.10
2018-07-17T14:38:19.117Z,17.30
2018-07-17T14:40:51.641Z,17.30
2018-07-17T14:43:20.508Z,17.70
2018-07-17T14:45:49.308Z,17.70
2018-07-17T14:48:18.228Z,17.90
2018-07-17T14:50:47.231Z,18.00
2018-07-17T14:53:15.853Z,18.10
2018-07-17T14:55:47.766Z,18.60
2018-07-17T14:58:16.562Z,18.90
2018-07-17T15:00:45.430Z,19.00
2018-07-17T15:03:14.134Z,19.10
2018-07-17T15:05:46.919Z,19.30
2018-07-17T15:08:15.351Z,19.40
2018-07-17T15:10:51.430Z,19.80
2018-07-17T15:13:22.631Z,20.10
2018-07-17T15:15:51.316Z,20.50
2018-07-17T15:18:20.434Z,20.70
2018-07-17T15:20:49.178Z,20.70
2018-07-17T15:23:17.896Z,20.50
2018-07-17T15:25:46.416Z,20.40
2018-07-17T15:28:15.123Z,20.50
2018-07-17T15:30:43.510Z,20.60
2018-07-17T15:33:12.139Z,20.60
2018-07-17T15:35:40.746Z,20.70
2018-07-17T15:38:09.395Z,21.00
2018-07-17T15:40:38.156Z,21.10
2018-07-17T15:45:35.828Z,21.10
2018-07-17T15:48:04.389Z,21.30
2018-07-17T15:50:33.021Z,21.50
2018-07-17T15:53:01.639Z,21.60
2018-07-17T15:55:30.298Z,21.60
2018-07-17T15:57:58.982Z,21.60
2018-07-17T16:00:27.707Z,21.80
2018-07-17T16:02:56.238Z,21.70
2018-07-17T16:05:24.895Z,21.80
2018-07-17T16:07:53.459Z,21.90
2018-07-17T16:10:22.273Z,21.70
2018-07-17T16:12:50.912Z,21.90
2018-07-17T16:15:20.734Z,21.70
2018-07-17T16:17:49.359Z,21.80
2018-07-17T16:20:18.288Z,21.90
2018-07-17T16:22:47.012Z,22.00
2018-07-17T16:25:15.782Z,22.10
2018-07-17T16:27:44.553Z,22.20
2018-07-17T16:30:14.062Z,22.00
2018-07-17T16:32:42.931Z,22.00
2018-07-17T16:35:11.697Z,21.90
2018-07-17T16:37:40.712Z,22.20
2018-07-17T16:40:09.856Z,22.40
2018-07-17T16:42:38.622Z,22.40
2018-07-17T16:45:07.610Z,22.40
2018-07-17T16:47:36.313Z,22.40
2018-07-17T16:50:05.181Z,22.30
2018-07-17T16:52:41.166Z,22.30
2018-07-17T16:55:10.022Z,22.20
2018-07-17T16:57:38.940Z,22.30
2018-07-17T17:00:07.853Z,22.40
2018-07-17T17:02:36.693Z,22.30
2018-07-17T17:05:12.613Z,22.20
2018-07-17T17:07:42.708Z,22.20
2018-07-17T17:10:11.524Z,22.20
2018-07-17T17:12:40.350Z,22.00
2018-07-17T17:15:09.170Z,22.00
2018-07-17T17:17:37.884Z,22.00
2018-07-17T17:20:06.739Z,21.80
2018-07-17T17:22:35.416Z,21.80
2018-07-17T17:25:03.971Z,21.90
2018-07-17T17:27:32.555Z,21.90
2018-07-17T17:30:01.216Z,21.90
2018-07-17T17:32:30.039Z,21.90
2018-07-17T17:34:58.987Z,21.90
2018-07-17T17:37:27.727Z,21.80
2018-07-17T17:39:56.533Z,21.90
2018-07-17T17:42:30.405Z,22.00
2018-07-17T17:45:02.782Z,21.90
2018-07-17T17:47:31.649Z,21.90
2018-07-17T17:50:00.272Z,21.90
2018-07-17T17:52:29.137Z,21.90
2018-07-17T17:54:58.032Z,21.80
2018-07-17T17:57:26.799Z,21.80
2018-07-17T17:59:55.538Z,21.80
2018-07-17T18:02:40.554Z,21.80
2018-07-17T18:05:12.600Z,21.80
2018-07-17T18:07:43.166Z,21.60
2018-07-17T18:10:11.870Z,21.40
2018-07-17T18:12:40.669Z,21.20
2018-07-17T18:15:09.455Z,21.10
2018-07-17T18:17:50.414Z,21.10
2018-07-17T18:23:38.055Z,20.80
2018-07-17T18:26:14.068Z,20.60
2018-07-17T18:28:42.542Z,20.60
2018-07-17T18:31:17.221Z,20.50
2018-07-17T18:33:46.043Z,20.40
2018-07-17T18:36:14.934Z,20.30
2018-07-17T18:38:43.693Z,20.30
2018-07-17T18:41:12.472Z,20.10
2018-07-17T18:43:41.114Z,20.10
2018-07-17T18:46:09.819Z,20.10
2018-07-17T18:48:40.030Z,20.00
2018-07-17T18:51:08.695Z,20.00
2018-07-17T18:53:37.469Z,19.90
2018-07-17T18:56:06.554Z,19.90
2018-07-17T18:58:35.417Z,19.80
2018-07-17T19:01:04.280Z,19.70
2018-07-17T19:03:34.178Z,19.70
2018-07-17T19:06:03.896Z,19.60
2018-07-17T19:08:32.409Z,19.50
2018-07-17T19:11:01.346Z,19.30
2018-07-17T19:13:29.923Z,19.20
2018-07-17T19:15:58.546Z,19.10
2018-07-17T19:18:27.052Z,19.10
2018-07-17T19:20:57.098Z,19.10
2018-07-17T19:23:25.775Z,19.10
2018-07-17T19:25:54.450Z,19.10
2018-07-17T19:28:23.124Z,19.10
2018-07-17T19:30:51.931Z,19.00
2018-07-17T19:33:20.536Z,19.00
2018-07-17T19:35:49.043Z,18.90
2018-07-17T19:38:17.614Z,19.00
2018-07-17T19:40:46.292Z,18.90
2018-07-17T19:43:14.700Z,18.90
2018-07-17T19:45:43.166Z,18.80
2018-07-17T19:48:11.788Z,18.70
2018-07-17T19:50:41.270Z,18.80
2018-07-17T19:53:13.401Z,18.80
2018-07-17T19:55:42.006Z,18.70
2018-07-17T19:58:10.540Z,18.70
2018-07-17T20:00:39.303Z,18.60
2018-07-17T20:03:07.861Z,18.60
2018-07-17T20:05:36.304Z,18.40
2018-07-17T20:08:05.519Z,18.30
2018-07-17T20:10:34.150Z,18.40
2018-07-17T20:13:02.672Z,18.30
2018-07-17T20:15:31.194Z,18.20
2018-07-17T20:17:59.688Z,18.10
2018-07-17T20:20:28.202Z,18.10
2018-07-17T20:22:56.838Z,18.00
2018-07-17T20:25:25.350Z,18.20
2018-07-17T20:27:53.818Z,18.20
2018-07-17T20:30:22.278Z,18.20
2018-07-17T20:32:50.713Z,18.10
2018-07-17T20:35:19.285Z,18.10
2018-07-17T20:37:47.857Z,18.00
2018-07-17T20:40:16.362Z,18.00
2018-07-17T20:42:45.099Z,18.00
2018-07-17T20:45:13.599Z,18.00
2018-07-17T20:47:42.101Z,18.10
2018-07-17T20:50:10.836Z,18.10
2018-07-17T20:52:39.416Z,18.00
2018-07-17T20:55:07.843Z,18.10
2018-07-17T20:57:36.908Z,18.10
2018-07-17T21:00:05.888Z,18.10
2018-07-17T21:02:34.391Z,18.10
2018-07-17T21:05:03.119Z,18.10
2018-07-17T21:07:31.691Z,18.10
2018-07-17T21:10:00.181Z,18.00
2018-07-17T21:12:28.746Z,18.00
2018-07-17T21:14:57.436Z,18.00
2018-07-17T21:17:25.956Z,17.90
2018-07-17T21:19:54.503Z,17.90
2018-07-17T21:22:22.977Z,17.80
2018-07-17T21:24:51.598Z,17.80
2018-07-17T21:27:20.124Z,17.70
2018-07-17T21:29:48.603Z,17.70
2018-07-17T21:32:17.048Z,17.60
2018-07-17T21:34:45.596Z,17.50
2018-07-17T21:37:14.036Z,17.50
2018-07-17T21:39:43.013Z,17.40
2018-07-17T21:42:11.656Z,17.30
2018-07-17T21:44:40.265Z,17.30
2018-07-17T21:47:08.952Z,17.30
2018-07-17T21:49:38.472Z,17.20
2018-07-17T21:52:08.351Z,17.20
2018-07-17T21:54:36.878Z,17.10
2018-07-17T21:57:07.539Z,17.10
2018-07-17T21:59:38.024Z,17.00
2018-07-17T22:02:06.667Z,17.00
2018-07-17T22:04:35.175Z,17.00
2018-07-17T22:07:03.715Z,16.90
2018-07-17T22:09:32.283Z,16.90
2018-07-17T22:12:00.772Z,16.80
2018-07-17T22:14:29.335Z,16.80
2018-07-17T22:16:57.883Z,16.80
2018-07-17T22:19:26.398Z,16.70
2018-07-17T22:21:55.007Z,16.70
2018-07-17T22:24:23.606Z,16.60
2018-07-17T22:26:52.178Z,16.60
2018-07-17T22:29:20.854Z,16.50
2018-07-17T22:31:49.347Z,16.50
2018-07-17T22:34:17.798Z,16.40
2018-07-17T22:36:46.290Z,16.40
2018-07-17T22:39:14.770Z,16.40
2018-07-17T22:41:43.233Z,16.30
2018-07-17T22:44:11.805Z,16.30
2018-07-17T22:46:40.274Z,16.20
2018-07-17T22:49:08.746Z,16.20
2018-07-17T22:51:37.382Z,16.20
2018-07-17T22:56:34.254Z,16.20
2018-07-17T22:59:02.810Z,16.20
2018-07-17T23:01:31.309Z,16.10
2018-07-17T23:03:59.834Z,16.10
2018-07-17T23:06:28.317Z,16.10
2018-07-17T23:08:56.806Z,16.00
2018-07-17T23:11:25.314Z,16.00
2018-07-17T23:13:53.866Z,16.00
2018-07-17T23:16:22.385Z,16.00
2018-07-17T23:18:50.866Z,15.90
2018-07-17T23:21:19.331Z,15.90
2018-07-17T23:23:47.877Z,15.90
2018-07-17T23:26:16.369Z,15.80
2018-07-17T23:28:44.954Z,15.80
2018-07-17T23:31:13.822Z,15.80
2018-07-17T23:33:42.298Z,15.70
2018-07-17T23:36:10.776Z,15.70
2018-07-17T23:38:39.239Z,15.70
2018-07-17T23:41:07.730Z,15.70
2018-07-17T23:43:36.199Z,15.70
2018-07-17T23:46:04.795Z,15.80
2018-07-17T23:48:33.254Z,15.70
2018-07-17T23:51:01.713Z,15.70
2018-07-17T23:53:30.219Z,15.70
2018-07-17T23:55:58.691Z,15.70
2018-07-17T23:58:27.163Z,15.70
